sensor_id;sensor_type;location;lat;lon;timestamp;temperature;humidity
36752;DHT22;22718;49.494;7.036;2023-04-01T00:01:44;8.70;99.90
36752;DHT22;22718;49.494;7.036;2023-04-01T00:04:10;8.60;99.90
36752;DHT22;22718;49.494;7.036;2023-04-01T00:06:36;8.60;99.90
36752;DHT22;22718;49.494;7.036;2023-04-01T00:09:01;8.60;99.90
36752;DHT22;22718;49.494;7.036;2023-04-01T00:11:27;8.60;99.90
36752;DHT22;22718;49.494;7.036;2023-04-01T00:13:53;8.60;99.90
36752;DHT22;22718;49.494;7.036;2023-04-01T00:16:19;8.60;99.90
36752;DHT22;22718;49.494;7.036;2023-04-01T00:18:45;8.50;99.90
36752;DHT22;22718;49.494;7.036;2023-04-01T00:21:13;8.60;99.90
36752;DHT22;22718;49.494;7.036;2023-04-01T00:23:38;8.50;99.90
36752;DHT22;22718;49.494;7.036;2023-04-01T00:26:07;8.50;99.90
36752;DHT22;22718;49.494;7.036;2023-04-01T00:28:34;8.50;99.90
36752;DHT22;22718;49.494;7.036;2023-04-01T00:31:04;8.50;99.90
36752;DHT22;22718;49.494;7.036;2023-04-01T00:33:30;8.50;99.90
36752;DHT22;22718;49.494;7.036;2023-04-01T00:35:56;8.50;99.90
36752;DHT22;22718;49.494;7.036;2023-04-01T00:38:30;8.40;99.90
36752;DHT22;22718;49.494;7.036;2023-04-01T00:40:58;8.40;99.90
36752;DHT22;22718;49.494;7.036;2023-04-01T00:43:24;8.40;99.90
36752;DHT22;22718;49.494;7.036;2023-04-01T00:45:50;8.40;99.90
36752;DHT22;22718;49.494;7.036;2023-04-01T00:48:26;8.40;99.90
36752;DHT22;22718;49.494;7.036;2023-04-01T00:51:10;8.40;99.90
36752;DHT22;22718;49.494;7.036;2023-04-01T00:53:39;8.40;99.90
36752;DHT22;22718;49.494;7.036;2023-04-01T00:56:07;8.40;99.90
36752;DHT22;22718;49.494;7.036;2023-04-01T00:58:40;8.40;99.90
36752;DHT22;22718;49.494;7.036;2023-04-01T01:01:08;8.40;99.90
36752;DHT22;22718;49.494;7.036;2023-04-01T01:03:34;8.40;99.90
36752;DHT22;22718;49.494;7.036;2023-04-01T01:08:55;8.40;99.90
36752;DHT22;22718;49.494;7.036;2023-04-01T01:12:16;8.40;99.90
36752;DHT22;22718;49.494;7.036;2023-04-01T01:14:34;8.30;99.90
36752;DHT22;22718;49.494;7.036;2023-04-01T01:17:16;8.30;99.90
36752;DHT22;22718;49.494;7.036;2023-04-01T01:31:30;8.20;99.90
36752;DHT22;22718;49.494;7.036;2023-04-01T01:34:16;8.20;99.90
36752;DHT22;22718;49.494;7.036;2023-04-01T01:36:53;8.30;99.90
36752;DHT22;22718;49.494;7.036;2023-04-01T01:39:21;8.20;99.90
36752;DHT22;22718;49.494;7.036;2023-04-01T01:41:52;8.30;99.90
36752;DHT22;22718;49.494;7.036;2023-04-01T01:44:19;8.30;99.90
36752;DHT22;22718;49.494;7.036;2023-04-01T01:46:47;8.30;99.90
36752;DHT22;22718;49.494;7.036;2023-04-01T01:49:15;8.30;99.90
36752;DHT22;22718;49.494;7.036;2023-04-01T01:51:41;8.30;99.90
36752;DHT22;22718;49.494;7.036;2023-04-01T01:54:16;8.30;99.90
36752;DHT22;22718;49.494;7.036;2023-04-01T01:56:46;8.20;99.90
36752;DHT22;22718;49.494;7.036;2023-04-01T01:59:16;8.20;99.90
36752;DHT22;22718;49.494;7.036;2023-04-01T02:01:46;8.20;99.90
36752;DHT22;22718;49.494;7.036;2023-04-01T02:04:14;8.20;99.90
36752;DHT22;22718;49.494;7.036;2023-04-01T02:06:46;8.20;99.90
36752;DHT22;22718;49.494;7.036;2023-04-01T02:09:13;8.20;99.90
36752;DHT22;22718;49.494;7.036;2023-04-01T02:11:47;8.20;99.90
36752;DHT22;22718;49.494;7.036;2023-04-01T02:14:20;8.30;99.90
36752;DHT22;22718;49.494;7.036;2023-04-01T02:17:06;8.30;99.90
36752;DHT22;22718;49.494;7.036;2023-04-01T02:19:49;8.30;99.90
36752;DHT22;22718;49.494;7.036;2023-04-01T02:22:20;8.30;99.90
36752;DHT22;22718;49.494;7.036;2023-04-01T02:24:48;8.30;99.90
36752;DHT22;22718;49.494;7.036;2023-04-01T02:27:14;8.30;99.90
36752;DHT22;22718;49.494;7.036;2023-04-01T02:29:40;8.30;99.90
36752;DHT22;22718;49.494;7.036;2023-04-01T02:32:07;8.30;99.90
36752;DHT22;22718;49.494;7.036;2023-04-01T02:34:34;8.30;99.90
36752;DHT22;22718;49.494;7.036;2023-04-01T02:37:00;8.30;99.90
36752;DHT22;22718;49.494;7.036;2023-04-01T02:39:26;8.30;99.90
36752;DHT22;22718;49.494;7.036;2023-04-01T02:41:52;8.20;99.90
36752;DHT22;22718;49.494;7.036;2023-04-01T02:44:18;8.20;99.90
36752;DHT22;22718;49.494;7.036;2023-04-01T02:46:45;8.20;99.90
36752;DHT22;22718;49.494;7.036;2023-04-01T02:49:11;8.20;99.90
36752;DHT22;22718;49.494;7.036;2023-04-01T02:51:39;8.20;99.90
36752;DHT22;22718;49.494;7.036;2023-04-01T02:54:05;8.20;99.90
36752;DHT22;22718;49.494;7.036;2023-04-01T02:56:36;8.20;99.90
36752;DHT22;22718;49.494;7.036;2023-04-01T02:59:02;8.20;99.90
36752;DHT22;22718;49.494;7.036;2023-04-01T03:01:28;8.20;99.90
36752;DHT22;22718;49.494;7.036;2023-04-01T03:03:53;8.20;99.90
36752;DHT22;22718;49.494;7.036;2023-04-01T03:06:19;8.20;99.90
36752;DHT22;22718;49.494;7.036;2023-04-01T03:08:45;8.20;99.90
36752;DHT22;22718;49.494;7.036;2023-04-01T03:11:11;8.20;99.90
36752;DHT22;22718;49.494;7.036;2023-04-01T03:13:37;8.20;99.90
36752;DHT22;22718;49.494;7.036;2023-04-01T03:16:03;8.20;99.90
36752;DHT22;22718;49.494;7.036;2023-04-01T03:18:29;8.20;99.90
36752;DHT22;22718;49.494;7.036;2023-04-01T03:20:54;8.20;99.90
36752;DHT22;22718;49.494;7.036;2023-04-01T03:23:20;8.20;99.90
36752;DHT22;22718;49.494;7.036;2023-04-01T03:25:46;8.20;99.90
36752;DHT22;22718;49.494;7.036;2023-04-01T03:28:12;8.20;99.90
36752;DHT22;22718;49.494;7.036;2023-04-01T03:30:39;8.20;99.90
36752;DHT22;22718;49.494;7.036;2023-04-01T03:33:05;8.20;99.90
36752;DHT22;22718;49.494;7.036;2023-04-01T03:35:30;8.10;99.90
36752;DHT22;22718;49.494;7.036;2023-04-01T03:37:56;8.20;99.90
36752;DHT22;22718;49.494;7.036;2023-04-01T03:40:22;8.10;99.90
36752;DHT22;22718;49.494;7.036;2023-04-01T03:42:49;8.10;99.90
36752;DHT22;22718;49.494;7.036;2023-04-01T03:45:15;8.10;99.90
36752;DHT22;22718;49.494;7.036;2023-04-01T03:47:45;8.10;99.90
36752;DHT22;22718;49.494;7.036;2023-04-01T03:50:12;8.10;99.90
36752;DHT22;22718;49.494;7.036;2023-04-01T03:52:38;8.00;99.90
36752;DHT22;22718;49.494;7.036;2023-04-01T03:55:04;8.10;99.90
36752;DHT22;22718;49.494;7.036;2023-04-01T03:57:31;8.00;99.90
36752;DHT22;22718;49.494;7.036;2023-04-01T03:59:58;8.00;99.90
36752;DHT22;22718;49.494;7.036;2023-04-01T04:02:23;8.00;99.90
36752;DHT22;22718;49.494;7.036;2023-04-01T04:04:49;8.00;99.90
36752;DHT22;22718;49.494;7.036;2023-04-01T04:07:15;8.00;99.90
36752;DHT22;22718;49.494;7.036;2023-04-01T04:10:01;8.00;99.90
36752;DHT22;22718;49.494;7.036;2023-04-01T04:12:26;8.00;99.90
36752;DHT22;22718;49.494;7.036;2023-04-01T04:14:52;7.90;99.90
36752;DHT22;22718;49.494;7.036;2023-04-01T04:17:18;7.90;99.90
36752;DHT22;22718;49.494;7.036;2023-04-01T04:19:44;7.90;99.90
36752;DHT22;22718;49.494;7.036;2023-04-01T04:22:09;7.90;99.90
36752;DHT22;22718;49.494;7.036;2023-04-01T04:24:35;7.90;99.90
36752;DHT22;22718;49.494;7.036;2023-04-01T04:27:02;7.90;99.90
36752;DHT22;22718;49.494;7.036;2023-04-01T04:29:28;7.90;99.90
36752;DHT22;22718;49.494;7.036;2023-04-01T04:31:53;7.90;99.90
36752;DHT22;22718;49.494;7.036;2023-04-01T04:34:19;7.90;99.90
36752;DHT22;22718;49.494;7.036;2023-04-01T04:36:45;7.90;99.90
36752;DHT22;22718;49.494;7.036;2023-04-01T04:39:10;7.90;99.90
36752;DHT22;22718;49.494;7.036;2023-04-01T04:41:37;7.90;99.90
36752;DHT22;22718;49.494;7.036;2023-04-01T04:44:03;7.90;99.90
36752;DHT22;22718;49.494;7.036;2023-04-01T04:46:28;7.90;99.90
36752;DHT22;22718;49.494;7.036;2023-04-01T04:48:54;7.80;99.90
36752;DHT22;22718;49.494;7.036;2023-04-01T04:51:21;7.80;99.90
36752;DHT22;22718;49.494;7.036;2023-04-01T04:53:47;7.90;99.90
36752;DHT22;22718;49.494;7.036;2023-04-01T04:56:13;7.80;99.90
36752;DHT22;22718;49.494;7.036;2023-04-01T04:58:42;7.80;99.90
36752;DHT22;22718;49.494;7.036;2023-04-01T05:01:14;7.90;99.90
36752;DHT22;22718;49.494;7.036;2023-04-01T05:03:41;7.90;99.90
36752;DHT22;22718;49.494;7.036;2023-04-01T05:06:08;7.90;99.90
36752;DHT22;22718;49.494;7.036;2023-04-01T05:08:34;7.80;99.90
36752;DHT22;22718;49.494;7.036;2023-04-01T05:11:02;7.80;99.90
36752;DHT22;22718;49.494;7.036;2023-04-01T05:13:28;7.80;99.90
36752;DHT22;22718;49.494;7.036;2023-04-01T05:15:54;7.90;99.90
36752;DHT22;22718;49.494;7.036;2023-04-01T05:18:21;7.90;99.90
36752;DHT22;22718;49.494;7.036;2023-04-01T05:20:51;7.90;99.90
36752;DHT22;22718;49.494;7.036;2023-04-01T05:23:17;7.80;99.90
36752;DHT22;22718;49.494;7.036;2023-04-01T05:25:44;7.90;99.90
36752;DHT22;22718;49.494;7.036;2023-04-01T05:28:11;7.90;99.90
36752;DHT22;22718;49.494;7.036;2023-04-01T05:30:38;7.90;99.90
36752;DHT22;22718;49.494;7.036;2023-04-01T05:33:04;7.90;99.90
36752;DHT22;22718;49.494;7.036;2023-04-01T05:35:31;7.90;99.90
36752;DHT22;22718;49.494;7.036;2023-04-01T05:37:57;7.90;99.90
36752;DHT22;22718;49.494;7.036;2023-04-01T05:40:26;7.90;99.90
36752;DHT22;22718;49.494;7.036;2023-04-01T05:42:51;8.00;99.90
36752;DHT22;22718;49.494;7.036;2023-04-01T05:45:17;7.90;99.90
36752;DHT22;22718;49.494;7.036;2023-04-01T05:47:43;7.90;99.90
36752;DHT22;22718;49.494;7.036;2023-04-01T05:50:10;7.90;99.90
36752;DHT22;22718;49.494;7.036;2023-04-01T05:52:36;7.90;99.90
36752;DHT22;22718;49.494;7.036;2023-04-01T05:55:03;7.90;99.90
36752;DHT22;22718;49.494;7.036;2023-04-01T05:57:28;8.00;99.90
36752;DHT22;22718;49.494;7.036;2023-04-01T05:59:57;8.00;99.90
36752;DHT22;22718;49.494;7.036;2023-04-01T06:02:23;8.10;99.90
36752;DHT22;22718;49.494;7.036;2023-04-01T06:04:49;8.00;99.90
36752;DHT22;22718;49.494;7.036;2023-04-01T06:07:20;8.10;99.90
36752;DHT22;22718;49.494;7.036;2023-04-01T06:09:45;8.10;99.90
36752;DHT22;22718;49.494;7.036;2023-04-01T06:31:33;8.40;99.90
36752;DHT22;22718;49.494;7.036;2023-04-01T06:36:53;8.40;99.90
36752;DHT22;22718;49.494;7.036;2023-04-01T06:39:54;8.50;99.90
36752;DHT22;22718;49.494;7.036;2023-04-01T06:42:50;8.50;99.90
36752;DHT22;22718;49.494;7.036;2023-04-01T06:45:31;8.40;99.90
36752;DHT22;22718;49.494;7.036;2023-04-01T06:51:58;8.50;99.90
36752;DHT22;22718;49.494;7.036;2023-04-01T06:54:05;8.50;99.90
36752;DHT22;22718;49.494;7.036;2023-04-01T06:56:32;8.60;99.90
36752;DHT22;22718;49.494;7.036;2023-04-01T06:59:19;8.50;99.90
36752;DHT22;22718;49.494;7.036;2023-04-01T07:01:50;8.60;99.90
36752;DHT22;22718;49.494;7.036;2023-04-01T07:04:23;8.60;99.90
36752;DHT22;22718;49.494;7.036;2023-04-01T07:06:57;8.60;99.90
36752;DHT22;22718;49.494;7.036;2023-04-01T07:09:38;8.60;99.90
36752;DHT22;22718;49.494;7.036;2023-04-01T07:14:58;8.70;99.90
36752;DHT22;22718;49.494;7.036;2023-04-01T07:17:31;8.80;99.90
36752;DHT22;22718;49.494;7.036;2023-04-01T07:20:23;8.80;99.90
36752;DHT22;22718;49.494;7.036;2023-04-01T07:23:01;8.90;99.90
36752;DHT22;22718;49.494;7.036;2023-04-01T07:25:34;8.90;99.90
36752;DHT22;22718;49.494;7.036;2023-04-01T07:28:04;9.00;99.90
36752;DHT22;22718;49.494;7.036;2023-04-01T07:44:35;9.20;99.90
36752;DHT22;22718;49.494;7.036;2023-04-01T07:58:19;9.50;99.90
36752;DHT22;22718;49.494;7.036;2023-04-01T08:00:33;9.50;99.90
36752;DHT22;22718;49.494;7.036;2023-04-01T08:17:20;9.70;99.90
36752;DHT22;22718;49.494;7.036;2023-04-01T08:22:30;9.80;99.90
36752;DHT22;22718;49.494;7.036;2023-04-01T08:25:01;9.80;99.90
36752;DHT22;22718;49.494;7.036;2023-04-01T08:28:03;9.80;99.90
36752;DHT22;22718;49.494;7.036;2023-04-01T08:30:36;9.90;99.90
36752;DHT22;22718;49.494;7.036;2023-04-01T08:33:24;9.90;99.90
36752;DHT22;22718;49.494;7.036;2023-04-01T08:36:10;9.90;99.90
36752;DHT22;22718;49.494;7.036;2023-04-01T08:39:09;9.90;99.90
36752;DHT22;22718;49.494;7.036;2023-04-01T08:52:37;10.20;99.90
36752;DHT22;22718;49.494;7.036;2023-04-01T09:00:57;10.40;99.90
36752;DHT22;22718;49.494;7.036;2023-04-01T09:11:37;10.50;99.90
36752;DHT22;22718;49.494;7.036;2023-04-01T09:23:21;10.30;99.90
36752;DHT22;22718;49.494;7.036;2023-04-01T09:34:43;10.40;99.90
36752;DHT22;22718;49.494;7.036;2023-04-01T09:37:21;10.40;99.90
36752;DHT22;22718;49.494;7.036;2023-04-01T09:43:01;10.50;99.90
36752;DHT22;22718;49.494;7.036;2023-04-01T09:51:33;10.80;99.90
36752;DHT22;22718;49.494;7.036;2023-04-01T09:54:26;10.80;99.90
36752;DHT22;22718;49.494;7.036;2023-04-01T10:03:02;10.80;99.90
36752;DHT22;22718;49.494;7.036;2023-04-01T10:25:25;10.60;99.90
36752;DHT22;22718;49.494;7.036;2023-04-01T10:31:02;10.70;99.90
36752;DHT22;22718;49.494;7.036;2023-04-01T10:36:53;10.80;99.90
36752;DHT22;22718;49.494;7.036;2023-04-01T10:39:38;10.70;99.90
36752;DHT22;22718;49.494;7.036;2023-04-01T10:48:36;10.60;99.90
36752;DHT22;22718;49.494;7.036;2023-04-01T10:54:09;10.60;99.90
36752;DHT22;22718;49.494;7.036;2023-04-01T11:10:38;10.90;99.90
36752;DHT22;22718;49.494;7.036;2023-04-01T11:30:05;11.20;99.90
36752;DHT22;22718;49.494;7.036;2023-04-01T11:32:53;11.00;99.90
36752;DHT22;22718;49.494;7.036;2023-04-01T11:49:23;11.00;99.90
36752;DHT22;22718;49.494;7.036;2023-04-01T12:00:31;10.70;99.90
36752;DHT22;22718;49.494;7.036;2023-04-01T12:16:53;10.70;99.90
36752;DHT22;22718;49.494;7.036;2023-04-01T12:20:20;10.70;99.90
36752;DHT22;22718;49.494;7.036;2023-04-01T12:34:08;11.20;99.90
36752;DHT22;22718;49.494;7.036;2023-04-01T12:42:24;11.10;99.90
36752;DHT22;22718;49.494;7.036;2023-04-01T12:51:05;11.10;99.90
36752;DHT22;22718;49.494;7.036;2023-04-01T13:04:48;11.40;99.90
36752;DHT22;22718;49.494;7.036;2023-04-01T13:21:46;11.10;99.90
36752;DHT22;22718;49.494;7.036;2023-04-01T13:27:20;11.40;99.90
36752;DHT22;22718;49.494;7.036;2023-04-01T13:32:43;11.70;99.90
36752;DHT22;22718;49.494;7.036;2023-04-01T13:35:18;11.80;99.90
36752;DHT22;22718;49.494;7.036;2023-04-01T13:37:57;11.80;99.90
36752;DHT22;22718;49.494;7.036;2023-04-01T13:43:24;11.50;99.90
36752;DHT22;22718;49.494;7.036;2023-04-01T14:03:28;11.40;99.90
36752;DHT22;22718;49.494;7.036;2023-04-01T14:12:26;11.30;99.90
36752;DHT22;22718;49.494;7.036;2023-04-01T14:23:21;11.10;99.90
36752;DHT22;22718;49.494;7.036;2023-04-01T14:29:02;11.00;99.90
36752;DHT22;22718;49.494;7.036;2023-04-01T14:31:52;11.00;99.90
36752;DHT22;22718;49.494;7.036;2023-04-01T14:51:17;11.80;99.90
36752;DHT22;22718;49.494;7.036;2023-04-01T14:56:48;12.00;99.90
36752;DHT22;22718;49.494;7.036;2023-04-01T14:59:17;12.10;99.90
36752;DHT22;22718;49.494;7.036;2023-04-01T15:02:33;12.30;99.90
36752;DHT22;22718;49.494;7.036;2023-04-01T15:05:23;12.30;99.90
36752;DHT22;22718;49.494;7.036;2023-04-01T15:08:09;12.10;99.90
36752;DHT22;22718;49.494;7.036;2023-04-01T15:13:56;11.70;99.90
36752;DHT22;22718;49.494;7.036;2023-04-01T15:20:02;11.50;99.90
36752;DHT22;22718;49.494;7.036;2023-04-01T15:39:20;10.50;99.90
36752;DHT22;22718;49.494;7.036;2023-04-01T15:42:08;10.50;99.90
36752;DHT22;22718;49.494;7.036;2023-04-01T15:52:43;10.40;99.90
36752;DHT22;22718;49.494;7.036;2023-04-01T16:01:01;10.30;99.90
36752;DHT22;22718;49.494;7.036;2023-04-01T16:03:34;10.30;99.90
36752;DHT22;22718;49.494;7.036;2023-04-01T16:06:24;10.20;99.90
36752;DHT22;22718;49.494;7.036;2023-04-01T16:11:54;10.20;99.90
36752;DHT22;22718;49.494;7.036;2023-04-01T16:22:38;10.10;99.90
36752;DHT22;22718;49.494;7.036;2023-04-01T16:25:26;10.10;99.90
36752;DHT22;22718;49.494;7.036;2023-04-01T16:36:51;10.00;99.90
36752;DHT22;22718;49.494;7.036;2023-04-01T16:39:37;9.90;99.90
36752;DHT22;22718;49.494;7.036;2023-04-01T16:47:27;9.80;99.90
36752;DHT22;22718;49.494;7.036;2023-04-01T16:50:00;9.70;99.90
36752;DHT22;22718;49.494;7.036;2023-04-01T16:52:51;9.70;99.90
36752;DHT22;22718;49.494;7.036;2023-04-01T16:55:50;9.70;99.90
36752;DHT22;22718;49.494;7.036;2023-04-01T16:58:40;9.60;99.90
36752;DHT22;22718;49.494;7.036;2023-04-01T17:01:19;9.60;99.90
36752;DHT22;22718;49.494;7.036;2023-04-01T17:03:53;9.60;99.90
36752;DHT22;22718;49.494;7.036;2023-04-01T17:06:43;9.50;99.90
36752;DHT22;22718;49.494;7.036;2023-04-01T17:09:15;9.50;99.90
36752;DHT22;22718;49.494;7.036;2023-04-01T17:12:16;9.40;99.90
36752;DHT22;22718;49.494;7.036;2023-04-01T17:15:04;9.40;99.90
36752;DHT22;22718;49.494;7.036;2023-04-01T17:20:24;9.40;99.90
36752;DHT22;22718;49.494;7.036;2023-04-01T17:31:26;9.30;99.90
36752;DHT22;22718;49.494;7.036;2023-04-01T17:42:35;9.20;99.90
36752;DHT22;22718;49.494;7.036;2023-04-01T17:45:32;9.10;99.90
36752;DHT22;22718;49.494;7.036;2023-04-01T17:59:26;9.10;99.90
36752;DHT22;22718;49.494;7.036;2023-04-01T18:02:02;9.10;99.90
36752;DHT22;22718;49.494;7.036;2023-04-01T18:04:41;9.10;99.90
36752;DHT22;22718;49.494;7.036;2023-04-01T18:10:19;9.00;99.90
36752;DHT22;22718;49.494;7.036;2023-04-01T18:21:46;9.00;99.90
36752;DHT22;22718;49.494;7.036;2023-04-01T18:26:50;9.00;99.90
36752;DHT22;22718;49.494;7.036;2023-04-01T18:29:38;9.00;99.90
36752;DHT22;22718;49.494;7.036;2023-04-01T18:37:27;9.00;99.90
36752;DHT22;22718;49.494;7.036;2023-04-01T18:40:40;9.00;99.90
36752;DHT22;22718;49.494;7.036;2023-04-01T18:43:33;8.90;99.90
36752;DHT22;22718;49.494;7.036;2023-04-01T18:52:13;9.00;99.90
36752;DHT22;22718;49.494;7.036;2023-04-01T18:57:49;9.00;99.90
36752;DHT22;22718;49.494;7.036;2023-04-01T19:03:10;9.00;99.90
36752;DHT22;22718;49.494;7.036;2023-04-01T19:05:41;9.00;99.90
36752;DHT22;22718;49.494;7.036;2023-04-01T19:18:58;9.00;99.90
36752;DHT22;22718;49.494;7.036;2023-04-01T19:21:42;9.00;99.90
36752;DHT22;22718;49.494;7.036;2023-04-01T19:27:34;9.00;99.90
36752;DHT22;22718;49.494;7.036;2023-04-01T19:33:50;9.00;99.90
36752;DHT22;22718;49.494;7.036;2023-04-01T19:47:44;8.90;99.90
36752;DHT22;22718;49.494;7.036;2023-04-01T19:50:35;8.90;99.90
36752;DHT22;22718;49.494;7.036;2023-04-01T19:53:28;8.90;99.90
36752;DHT22;22718;49.494;7.036;2023-04-01T19:56:24;8.90;99.90
36752;DHT22;22718;49.494;7.036;2023-04-01T19:59:02;8.90;99.90
36752;DHT22;22718;49.494;7.036;2023-04-01T20:04:48;8.90;99.90
36752;DHT22;22718;49.494;7.036;2023-04-01T20:07:37;8.90;99.90
36752;DHT22;22718;49.494;7.036;2023-04-01T20:15:39;8.80;99.90
36752;DHT22;22718;49.494;7.036;2023-04-01T20:18:20;8.80;99.90
36752;DHT22;22718;49.494;7.036;2023-04-01T20:21:16;8.80;99.90
36752;DHT22;22718;49.494;7.036;2023-04-01T20:26:59;8.90;99.90
36752;DHT22;22718;49.494;7.036;2023-04-01T20:30:23;8.90;99.90
36752;DHT22;22718;49.494;7.036;2023-04-01T20:33:03;8.90;99.90
36752;DHT22;22718;49.494;7.036;2023-04-01T20:41:02;8.80;99.90
36752;DHT22;22718;49.494;7.036;2023-04-01T20:46:14;8.70;99.90
36752;DHT22;22718;49.494;7.036;2023-04-01T20:51:38;8.80;99.90
36752;DHT22;22718;49.494;7.036;2023-04-01T20:59:55;8.80;99.90
36752;DHT22;22718;49.494;7.036;2023-04-01T21:25:17;8.60;99.90
36752;DHT22;22718;49.494;7.036;2023-04-01T21:39:22;8.70;99.90
36752;DHT22;22718;49.494;7.036;2023-04-01T21:42:14;8.60;99.90
36752;DHT22;22718;49.494;7.036;2023-04-01T21:56:56;8.60;99.90
36752;DHT22;22718;49.494;7.036;2023-04-01T22:05:10;8.50;99.90
36752;DHT22;22718;49.494;7.036;2023-04-01T22:18:37;8.60;99.90
36752;DHT22;22718;49.494;7.036;2023-04-01T22:21:10;8.50;99.90
36752;DHT22;22718;49.494;7.036;2023-04-01T22:33:27;8.50;99.90
36752;DHT22;22718;49.494;7.036;2023-04-01T22:43:56;8.60;99.90
36752;DHT22;22718;49.494;7.036;2023-04-01T22:49:20;8.60;99.90
36752;DHT22;22718;49.494;7.036;2023-04-01T22:51:54;8.60;99.90
36752;DHT22;22718;49.494;7.036;2023-04-01T22:54:22;8.60;99.90
36752;DHT22;22718;49.494;7.036;2023-04-01T22:59:52;8.60;99.90
36752;DHT22;22718;49.494;7.036;2023-04-01T23:05:51;8.60;99.90
36752;DHT22;22718;49.494;7.036;2023-04-01T23:14:02;8.60;99.90
36752;DHT22;22718;49.494;7.036;2023-04-01T23:16:41;8.60;99.90
36752;DHT22;22718;49.494;7.036;2023-04-01T23:19:23;8.60;99.90
36752;DHT22;22718;49.494;7.036;2023-04-01T23:22:10;8.50;99.90
36752;DHT22;22718;49.494;7.036;2023-04-01T23:24:57;8.60;99.90
36752;DHT22;22718;49.494;7.036;2023-04-01T23:27:38;8.50;99.90
36752;DHT22;22718;49.494;7.036;2023-04-01T23:36:11;8.40;99.90
36752;DHT22;22718;49.494;7.036;2023-04-01T23:38:39;8.50;99.90
36752;DHT22;22718;49.494;7.036;2023-04-01T23:41:18;8.50;99.90
36752;DHT22;22718;49.494;7.036;2023-04-01T23:43:48;8.50;99.90
36752;DHT22;22718;49.494;7.036;2023-04-01T23:46:18;8.40;99.90
36752;DHT22;22718;49.494;7.036;2023-04-01T23:48:45;8.40;99.90
36752;DHT22;22718;49.494;7.036;2023-04-01T23:51:38;8.40;99.90
36752;DHT22;22718;49.494;7.036;2023-04-01T23:54:17;8.40;99.90
36752;DHT22;22718;49.494;7.036;2023-04-01T23:56:50;8.40;99.90
36752;DHT22;22718;49.494;7.036;2023-04-01T23:59:37;8.40;99.90
